createdAt,value
2018-07-05T00:01:16.709Z,5.40
2018-07-05T00:04:31.847Z,4.90
2018-07-05T00:07:47.078Z,5.47
2018-07-05T00:11:02.253Z,6.83
2018-07-05T00:14:17.426Z,5.77
2018-07-05T00:17:32.731Z,7.73
2018-07-05T00:20:47.873Z,14.47
2018-07-05T00:24:03.138Z,9.70
2018-07-05T00:27:18.282Z,6.13
2018-07-05T00:30:33.593Z,6.70
2018-07-05T00:33:48.811Z,5.97
2018-07-05T00:36:57.989Z,8.73
2018-07-05T00:40:13.073Z,7.20
2018-07-05T00:43:28.355Z,6.70
2018-07-05T00:46:43.682Z,6.33
2018-07-05T00:49:58.913Z,6.30
2018-07-05T00:53:14.017Z,6.63
2018-07-05T00:56:23.115Z,9.27
2018-07-05T00:59:38.229Z,6.40
2018-07-05T01:02:53.755Z,6.10
2018-07-05T01:06:09.130Z,5.77
2018-07-05T01:09:24.482Z,6.67
2018-07-05T01:12:39.835Z,6.27
2018-07-05T01:15:55.016Z,5.93
2018-07-05T01:19:10.279Z,6.30
2018-07-05T01:22:25.604Z,8.73
2018-07-05T01:25:40.779Z,8.67
2018-07-05T01:28:56.150Z,8.90
2018-07-05T01:32:11.632Z,6.63
2018-07-05T01:35:27.063Z,10.80
2018-07-05T01:38:42.319Z,11.40
2018-07-05T01:41:57.764Z,8.33
2018-07-05T01:45:12.998Z,10.70
2018-07-05T01:48:28.438Z,12.80
2018-07-05T01:51:43.577Z,11.10
2018-07-05T01:54:58.609Z,6.93
2018-07-05T01:58:07.915Z,7.20
2018-07-05T02:01:23.179Z,7.07
2018-07-05T02:04:38.319Z,7.00
2018-07-05T02:07:53.642Z,7.23
2018-07-05T02:11:08.949Z,9.30
2018-07-05T02:14:18.187Z,9.67
2018-07-05T02:17:33.292Z,7.87
2018-07-05T02:20:48.411Z,11.60
2018-07-05T02:24:03.689Z,9.17
2018-07-05T02:27:18.827Z,7.00
2018-07-05T02:30:34.162Z,7.23
2018-07-05T02:33:49.472Z,8.00
2018-07-05T02:37:04.508Z,9.70
2018-07-05T02:40:19.911Z,12.73
2018-07-05T02:43:35.050Z,9.10
2018-07-05T02:46:50.152Z,8.40
2018-07-05T02:50:05.527Z,7.17
2018-07-05T02:53:20.784Z,7.87
2018-07-05T02:56:36.051Z,8.10
2018-07-05T02:59:51.294Z,7.03
2018-07-05T03:03:06.590Z,6.50
2018-07-05T03:06:15.716Z,6.60
2018-07-05T03:09:30.863Z,6.03
2018-07-05T03:12:46.107Z,5.50
2018-07-05T03:16:01.224Z,5.90
2018-07-05T03:19:16.500Z,5.60
2018-07-05T03:22:31.838Z,6.03
2018-07-05T03:25:46.957Z,5.70
2018-07-05T03:28:56.263Z,5.90
2018-07-05T03:32:11.491Z,5.40
2018-07-05T03:35:26.782Z,5.40
2018-07-05T03:38:41.852Z,5.03
2018-07-05T03:41:57.039Z,5.40
2018-07-05T03:45:12.223Z,4.93
2018-07-05T03:48:27.394Z,5.10
2018-07-05T03:51:42.727Z,4.87
2018-07-05T03:54:58.047Z,5.20
2018-07-05T03:58:13.424Z,14.58
2018-07-05T04:01:28.692Z,14.03
2018-07-05T04:04:44.029Z,5.22
2018-07-05T04:07:59.342Z,6.50
2018-07-05T04:11:14.649Z,6.43
2018-07-05T04:14:23.998Z,4.92
2018-07-05T04:17:39.101Z,5.08
2018-07-05T04:20:54.405Z,5.40
2018-07-05T04:24:09.744Z,8.23
2018-07-05T04:27:18.795Z,5.58
2018-07-05T04:30:34.068Z,6.70
2018-07-05T04:33:49.262Z,9.88
2018-07-05T04:37:04.460Z,5.10
2018-07-05T04:40:19.703Z,4.80
2018-07-05T04:43:34.947Z,4.83
2018-07-05T04:46:50.187Z,14.80
2018-07-05T04:50:05.416Z,9.98
2018-07-05T04:53:20.662Z,5.58
2018-07-05T04:56:29.914Z,8.80
2018-07-05T04:59:45.190Z,8.75
2018-07-05T05:03:00.412Z,8.30
2018-07-05T05:06:09.697Z,5.58
2018-07-05T05:09:24.690Z,9.38
2018-07-05T05:12:39.825Z,6.45
2018-07-05T05:15:55.124Z,6.22
2018-07-05T05:19:04.181Z,6.10
2018-07-05T05:22:19.298Z,5.33
2018-07-05T05:25:34.585Z,5.28
2018-07-05T05:28:50.039Z,5.08
2018-07-05T05:31:59.297Z,5.25
2018-07-05T05:35:14.607Z,5.75
2018-07-05T05:38:29.945Z,4.95
2018-07-05T05:41:45.338Z,7.87
2018-07-05T05:45:00.677Z,5.25
2018-07-05T05:48:09.745Z,6.30
2018-07-05T05:51:24.962Z,4.80
2018-07-05T05:54:40.166Z,5.42
2018-07-05T05:57:55.395Z,6.30
2018-07-05T06:01:10.573Z,5.30
2018-07-05T06:04:25.760Z,5.50
2018-07-05T06:07:41.067Z,5.92
2018-07-05T06:10:56.151Z,5.35
2018-07-05T06:14:11.325Z,4.97
2018-07-05T06:17:26.501Z,4.75
2018-07-05T06:20:41.697Z,5.50
2018-07-05T06:23:57.014Z,6.80
2018-07-05T06:27:12.199Z,5.33
2018-07-05T06:30:27.391Z,9.73
2018-07-05T06:33:42.634Z,5.20
2018-07-05T06:36:51.887Z,5.15
2018-07-05T06:40:07.114Z,5.80
2018-07-05T06:43:22.290Z,5.15
2018-07-05T06:46:37.707Z,5.22
2018-07-05T06:49:52.789Z,5.25
2018-07-05T06:53:08.226Z,5.47
2018-07-05T06:56:23.333Z,4.83
2018-07-05T06:59:38.331Z,4.60
2018-07-05T07:02:53.651Z,4.28
2018-07-05T07:06:02.813Z,4.28
2018-07-05T07:09:17.786Z,4.55
2018-07-05T07:12:33.207Z,4.12
2018-07-05T07:15:48.563Z,4.22
2018-07-05T07:19:03.692Z,4.30
2018-07-05T07:22:12.905Z,4.20
2018-07-05T07:25:21.994Z,5.30
2018-07-05T07:28:37.077Z,5.05
2018-07-05T07:31:52.452Z,4.08
2018-07-05T07:35:07.612Z,3.58
2018-07-05T07:38:22.916Z,3.85
2018-07-05T07:41:37.970Z,3.92
2018-07-05T07:44:40.729Z,4.15
2018-07-05T07:47:43.508Z,3.85
2018-07-05T07:50:46.285Z,4.20
2018-07-05T07:53:49.141Z,3.92
2018-07-05T07:56:51.890Z,4.05
2018-07-05T07:59:54.643Z,3.12
2018-07-05T08:02:57.418Z,3.65
2018-07-05T08:06:00.179Z,3.52
2018-07-05T08:09:04.484Z,3.45
2018-07-05T08:12:07.541Z,3.33
2018-07-05T08:15:10.358Z,3.40
2018-07-05T08:18:13.023Z,3.27
2018-07-05T08:21:15.818Z,3.35
2018-07-05T08:24:18.813Z,3.70
2018-07-05T08:27:21.791Z,3.47
2018-07-05T08:30:24.687Z,3.33
2018-07-05T08:33:27.511Z,3.90
2018-07-05T08:36:30.391Z,3.83
2018-07-05T08:39:33.170Z,4.00
2018-07-05T08:42:35.967Z,3.77
2018-07-05T08:45:38.740Z,3.90
2018-07-05T08:48:41.735Z,4.87
2018-07-05T08:51:44.676Z,4.17
2018-07-05T08:54:47.419Z,3.98
2018-07-05T08:57:50.227Z,3.77
2018-07-05T09:00:52.947Z,4.35
2018-07-05T09:03:55.792Z,3.58
2018-07-05T09:06:58.530Z,4.00
2018-07-05T09:10:01.310Z,3.45
2018-07-05T09:13:04.069Z,4.08
2018-07-05T09:16:07.102Z,4.12
2018-07-05T09:19:09.851Z,3.98
2018-07-05T09:22:12.623Z,4.53
2018-07-05T09:25:15.395Z,4.67
2018-07-05T09:28:18.155Z,4.10
2018-07-05T09:31:20.912Z,3.95
2018-07-05T09:34:23.681Z,4.40
2018-07-05T09:37:26.549Z,3.90
2018-07-05T09:40:29.279Z,3.50
2018-07-05T09:43:32.295Z,3.40
2018-07-05T09:46:34.979Z,4.17
2018-07-05T09:49:37.780Z,3.95
2018-07-05T09:52:40.610Z,4.42
2018-07-05T09:55:43.335Z,4.92
2018-07-05T09:58:46.178Z,4.17
2018-07-05T10:01:48.895Z,4.72
2018-07-05T10:04:51.689Z,5.33
2018-07-05T10:07:54.477Z,5.28
2018-07-05T10:10:57.259Z,4.20
2018-07-05T10:14:00.056Z,3.45
2018-07-05T10:17:03.622Z,4.42
2018-07-05T10:20:06.377Z,4.25
2018-07-05T10:23:09.414Z,3.70
2018-07-05T10:26:12.167Z,3.55
2018-07-05T10:29:21.340Z,3.35
2018-07-05T10:32:36.402Z,4.20
2018-07-05T10:35:39.196Z,3.85
2018-07-05T10:38:41.957Z,3.85
2018-07-05T10:41:57.195Z,3.77
2018-07-05T10:45:12.366Z,3.70
2018-07-05T10:48:27.545Z,3.70
2018-07-05T10:51:43.106Z,3.60
2018-07-05T10:54:58.271Z,4.60
2018-07-05T10:58:13.507Z,4.03
2018-07-05T11:01:28.610Z,5.17
2018-07-05T11:04:43.958Z,5.25
2018-07-05T11:07:59.127Z,4.08
2018-07-05T11:11:14.450Z,3.85
2018-07-05T11:14:29.491Z,4.15
2018-07-05T11:17:44.819Z,4.00
2018-07-05T11:20:59.947Z,4.05
2018-07-05T11:24:15.118Z,3.58
2018-07-05T11:27:30.378Z,4.70
2018-07-05T11:30:45.691Z,3.85
2018-07-05T11:34:00.852Z,4.40
2018-07-05T11:37:10.066Z,3.83
2018-07-05T11:40:25.127Z,3.72
2018-07-05T11:43:40.302Z,4.37
2018-07-05T11:46:55.669Z,4.35
2018-07-05T11:50:10.941Z,4.20
2018-07-05T11:53:26.004Z,3.60
2018-07-05T11:56:41.204Z,4.20
2018-07-05T11:59:56.399Z,4.62
2018-07-05T12:03:05.540Z,4.42
2018-07-05T12:06:20.542Z,4.33
2018-07-05T12:09:35.755Z,4.25
2018-07-05T12:12:50.896Z,4.00
2018-07-05T12:16:06.043Z,3.65
2018-07-05T12:19:21.216Z,4.03
2018-07-05T12:22:36.580Z,4.33
2018-07-05T12:25:51.768Z,5.10
2018-07-05T12:29:07.245Z,5.05
2018-07-05T12:32:22.464Z,4.85
2018-07-05T12:35:37.681Z,3.80
2018-07-05T12:38:52.864Z,4.50
2018-07-05T12:42:08.015Z,5.37
2018-07-05T12:45:17.063Z,5.00
2018-07-05T12:48:32.156Z,3.60
2018-07-05T12:51:47.705Z,3.70
2018-07-05T12:55:03.139Z,3.65
2018-07-05T12:58:18.459Z,4.00
2018-07-05T13:01:33.788Z,4.30
2018-07-05T13:04:49.248Z,4.97
2018-07-05T13:08:08.625Z,4.80
2018-07-05T13:11:23.806Z,4.03
2018-07-05T13:14:38.909Z,4.83
2018-07-05T13:17:54.237Z,5.37
2018-07-05T13:21:09.370Z,4.10
2018-07-05T13:24:24.573Z,4.95
2018-07-05T13:27:40.068Z,3.90
2018-07-05T13:30:55.239Z,3.80
2018-07-05T13:34:10.260Z,4.30
2018-07-05T13:37:25.474Z,3.92
2018-07-05T13:40:40.823Z,4.05
2018-07-05T13:43:56.015Z,4.15
2018-07-05T13:47:11.352Z,4.08
2018-07-05T13:50:26.887Z,3.62
2018-07-05T13:53:42.190Z,4.70
2018-07-05T13:56:57.450Z,4.30
2018-07-05T14:00:12.639Z,4.60
2018-07-05T14:03:27.905Z,4.33
2018-07-05T14:06:43.056Z,4.45
2018-07-05T14:09:58.466Z,4.33
2018-07-05T14:13:13.682Z,4.40
2018-07-05T14:16:28.875Z,4.45
2018-07-05T14:19:44.219Z,4.50
2018-07-05T14:22:53.430Z,6.80
2018-07-05T14:26:02.454Z,4.97
2018-07-05T14:29:18.055Z,5.70
2018-07-05T14:32:27.294Z,4.58
2018-07-05T14:35:42.277Z,4.28
2018-07-05T14:38:51.385Z,3.90
2018-07-05T14:42:06.493Z,4.10
2018-07-05T14:45:21.630Z,4.90
2018-07-05T14:48:36.834Z,4.55
2018-07-05T14:51:51.933Z,4.70
2018-07-05T14:55:07.278Z,4.67
2018-07-05T14:58:22.571Z,3.90
2018-07-05T15:01:37.752Z,4.75
2018-07-05T15:04:52.744Z,4.65
2018-07-05T15:08:08.045Z,4.15
2018-07-05T15:11:23.286Z,4.70
2018-07-05T15:14:38.443Z,4.08
2018-07-05T15:17:53.618Z,4.40
2018-07-05T15:21:08.724Z,6.03
2018-07-05T15:24:23.978Z,5.70
2018-07-05T15:27:39.487Z,4.87
2018-07-05T15:30:54.836Z,4.20
2018-07-05T15:34:10.182Z,4.87
2018-07-05T15:37:25.846Z,4.72
2018-07-05T15:40:41.065Z,4.45
2018-07-05T15:43:56.262Z,4.53
2018-07-05T15:47:11.278Z,4.15
2018-07-05T15:50:26.621Z,4.12
2018-07-05T15:53:42.054Z,3.98
2018-07-05T15:56:57.166Z,4.95
2018-07-05T16:00:06.417Z,4.33
2018-07-05T16:03:21.515Z,4.95
2018-07-05T16:06:36.549Z,7.15
2018-07-05T16:09:52.017Z,4.08
2018-07-05T16:13:07.237Z,6.20
2018-07-05T16:16:22.586Z,4.90
2018-07-05T16:19:37.946Z,4.40
2018-07-05T16:22:53.114Z,4.55
2018-07-05T16:26:02.382Z,4.42
2018-07-05T16:29:17.528Z,4.33
2018-07-05T16:32:32.750Z,4.50
2018-07-05T16:35:48.088Z,4.40
2018-07-05T16:39:04.585Z,4.35
2018-07-05T16:42:19.859Z,4.22
2018-07-05T16:45:35.127Z,4.00
2018-07-05T16:48:50.421Z,3.35
2018-07-05T16:52:05.642Z,4.05
2018-07-05T16:55:20.836Z,3.65
2018-07-05T16:58:36.030Z,3.47
2018-07-05T17:01:51.296Z,3.60
2018-07-05T17:05:06.434Z,3.67
2018-07-05T17:08:21.643Z,3.75
2018-07-05T17:11:36.921Z,2.72
2018-07-05T17:14:46.115Z,3.60
2018-07-05T17:18:01.220Z,3.50
2018-07-05T17:21:10.376Z,3.05
2018-07-05T17:24:25.550Z,4.15
2018-07-05T17:27:40.726Z,3.20
2018-07-05T17:30:55.920Z,3.87
2018-07-05T17:34:11.173Z,3.02
2018-07-05T17:37:27.094Z,4.15
2018-07-05T17:40:42.561Z,3.20
2018-07-05T17:43:57.805Z,2.77
2018-07-05T17:47:13.086Z,2.87
2018-07-05T17:50:28.177Z,3.35
2018-07-05T17:53:43.440Z,3.00
2018-07-05T17:56:58.681Z,3.40
2018-07-05T18:00:07.709Z,3.50
2018-07-05T18:03:16.751Z,3.75
2018-07-05T18:06:31.985Z,2.65
2018-07-05T18:09:47.104Z,3.25
2018-07-05T18:13:02.306Z,2.60
2018-07-05T18:16:17.622Z,4.25
2018-07-05T18:19:32.762Z,2.72
2018-07-05T18:22:48.084Z,3.22
2018-07-05T18:26:03.381Z,2.85
2018-07-05T18:29:18.574Z,2.60
2018-07-05T18:32:27.682Z,3.00
2018-07-05T18:35:42.986Z,2.80
2018-07-05T18:38:58.225Z,3.35
2018-07-05T18:42:13.520Z,4.22
2018-07-05T18:45:29.012Z,2.80
2018-07-05T18:48:44.593Z,2.50
2018-07-05T18:51:59.922Z,2.42
2018-07-05T18:55:15.149Z,2.42
2018-07-05T18:58:30.472Z,2.45
2018-07-05T19:01:45.889Z,2.33
2018-07-05T19:05:01.299Z,4.35
2018-07-05T19:08:16.656Z,3.05
2018-07-05T19:11:31.785Z,3.10
2018-07-05T19:14:47.213Z,2.65
2018-07-05T19:18:02.446Z,3.05
2018-07-05T19:21:17.623Z,3.33
2018-07-05T19:24:32.678Z,3.77
2018-07-05T19:27:48.320Z,3.35
2018-07-05T19:31:03.414Z,3.58
2018-07-05T19:34:12.731Z,3.08
2018-07-05T19:37:27.981Z,3.08
2018-07-05T19:40:43.161Z,3.40
2018-07-05T19:43:58.776Z,3.50
2018-07-05T19:47:14.186Z,3.10
2018-07-05T19:50:29.520Z,3.45
2018-07-05T19:53:44.942Z,4.30
2018-07-05T19:57:00.034Z,4.30
2018-07-05T20:00:19.889Z,5.95
2018-07-05T20:03:35.085Z,6.10
2018-07-05T20:06:50.418Z,4.60
2018-07-05T20:10:05.708Z,3.80
2018-07-05T20:13:20.859Z,11.12
2018-07-05T20:16:35.996Z,9.93
2018-07-05T20:19:51.354Z,8.98
2018-07-05T20:23:06.646Z,4.40
2018-07-05T20:26:21.933Z,3.20
2018-07-05T20:29:37.169Z,3.75
2018-07-05T20:32:52.421Z,4.00
2018-07-05T20:36:07.674Z,3.55
2018-07-05T20:39:22.808Z,3.58
2018-07-05T20:42:38.185Z,3.58
2018-07-05T20:45:53.450Z,3.52
2018-07-05T20:49:08.754Z,3.92
2018-07-05T20:52:24.071Z,4.25
2018-07-05T20:55:39.378Z,4.28
2018-07-05T20:58:54.679Z,8.50
2018-07-05T21:02:09.758Z,3.10
2018-07-05T21:05:25.109Z,4.78
2018-07-05T21:08:40.362Z,4.05
2018-07-05T21:11:55.523Z,3.80
2018-07-05T21:15:04.854Z,5.92
2018-07-05T21:18:20.127Z,9.78
2018-07-05T21:21:35.444Z,6.10
2018-07-05T21:24:50.881Z,5.85
2018-07-05T21:28:06.075Z,4.92
2018-07-05T21:31:21.418Z,4.35
2018-07-05T21:34:36.457Z,4.12
2018-07-05T21:37:51.807Z,4.95
2018-07-05T21:41:07.065Z,4.10
2018-07-05T21:44:22.326Z,4.75
2018-07-05T21:47:31.528Z,4.10
2018-07-05T21:50:46.707Z,4.23
2018-07-05T21:54:02.061Z,4.37
2018-07-05T21:57:17.426Z,4.50
2018-07-05T22:00:33.118Z,3.80
2018-07-05T22:03:42.201Z,3.80
2018-07-05T22:06:51.547Z,4.70
2018-07-05T22:10:07.795Z,7.23
2018-07-05T22:13:23.016Z,4.00
2018-07-05T22:16:43.738Z,3.87
2018-07-05T22:20:04.721Z,3.60
2018-07-05T22:23:19.365Z,4.87
2018-07-05T22:26:32.093Z,4.23
2018-07-05T22:29:53.002Z,3.53
2018-07-05T22:33:02.109Z,3.90
2018-07-05T22:36:11.216Z,3.73
2018-07-05T22:39:26.423Z,3.97
2018-07-05T22:42:41.724Z,3.97
2018-07-05T22:45:50.852Z,3.73
2018-07-05T22:49:06.161Z,3.60
2018-07-05T22:52:21.549Z,4.00
2018-07-05T22:55:36.705Z,3.67
2018-07-05T22:58:52.084Z,3.90
2018-07-05T23:02:07.374Z,3.90
2018-07-05T23:05:22.642Z,4.00
2018-07-05T23:08:38.018Z,4.00
2018-07-05T23:11:53.506Z,4.20
2018-07-05T23:15:08.724Z,3.90
2018-07-05T23:18:23.962Z,3.90
2018-07-05T23:21:39.270Z,4.40
2018-07-05T23:24:48.428Z,4.50
2018-07-05T23:28:03.554Z,4.37
2018-07-05T23:31:18.781Z,3.70
2018-07-05T23:34:34.084Z,4.70
2018-07-05T23:37:49.363Z,3.70
2018-07-05T23:41:04.620Z,4.00
2018-07-05T23:44:19.797Z,4.20
2018-07-05T23:47:34.965Z,3.57
2018-07-05T23:50:50.318Z,3.73
2018-07-05T23:54:05.950Z,3.73
2018-07-05T23:57:21.209Z,3.97
